NAC35 KOMA-KMCI
Flight info
| Callsign | NAC35 |
|---|---|
| Flight time | 0h 28m |
| Altitude | 23000 |
| Route | ASIIX JSONN4 |
| Aircraft | B737/M-SDE2E3FGHIRWXY/LB1 |
Departure
| Time | 2026-05-07 20:24 |
|---|---|
| Airport | Eppley Airfield (KOMA) |
Arrival
| Time | 2026-05-07 20:53 |
|---|---|
| Airport | Kansas City International Airport (KMCI) |
| Time | Latitude | Longitude | Altitude | Speed | Heading |
|---|---|---|---|---|---|
| 2026-05-07 20:11 | 41.30891 | -95.90686 | 0 ft | 0 kts | 144° |
| 2026-05-07 20:17 | 41.30903 | -95.90697 | 0 ft | 2 kts | 144° |
| 2026-05-07 20:18 | 41.30916 | -95.90710 | 905 ft | 2 kts | 144° |
| 2026-05-07 20:18 | 41.30930 | -95.90723 | 816 ft | 2 kts | 132° |
| 2026-05-07 20:18 | 41.30937 | -95.90742 | 990 ft | 2 kts | 71° |
| 2026-05-07 20:18 | 41.30935 | -95.90749 | 992 ft | 0 kts | 60° |
| 2026-05-07 20:19 | 41.30946 | -95.90723 | 991 ft | 11 kts | 59° |
| 2026-05-07 20:20 | 41.30996 | -95.90596 | 986 ft | 17 kts | 84° |
| 2026-05-07 20:20 | 41.30973 | -95.90431 | 990 ft | 20 kts | 99° |
| 2026-05-07 20:20 | 41.30869 | -95.90301 | 989 ft | 22 kts | 146° |
| 2026-05-07 20:20 | 41.30733 | -95.90174 | 986 ft | 25 kts | 143° |
| 2026-05-07 20:21 | 41.30586 | -95.90030 | 992 ft | 28 kts | 144° |
| 2026-05-07 20:21 | 41.30425 | -95.89877 | 987 ft | 30 kts | 145° |
| 2026-05-07 20:21 | 41.30254 | -95.89718 | 990 ft | 30 kts | 143° |
| 2026-05-07 20:21 | 41.30079 | -95.89552 | 988 ft | 32 kts | 145° |
| 2026-05-07 20:22 | 41.29897 | -95.89380 | 990 ft | 32 kts | 144° |
| 2026-05-07 20:22 | 41.29715 | -95.89207 | 990 ft | 32 kts | 144° |
| 2026-05-07 20:22 | 41.29531 | -95.89031 | 991 ft | 33 kts | 144° |
| 2026-05-07 20:22 | 41.29346 | -95.88854 | 988 ft | 32 kts | 144° |
| 2026-05-07 20:23 | 41.29232 | -95.88711 | 986 ft | 15 kts | 87° |
| 2026-05-07 20:23 | 41.29280 | -95.88619 | 983 ft | 7 kts | 21° |
| 2026-05-07 20:23 | 41.29349 | -95.88673 | 981 ft | 36 kts | 324° |
| 2026-05-07 20:23 | 41.29776 | -95.89080 | 986 ft | 113 kts | 324° |
| 2026-05-07 20:24 | 41.30279 | -95.89562 | 987 ft | 156 kts | 323° |
| 2026-05-07 20:24 | 41.31306 | -95.90524 | 1197 ft | 201 kts | 325° |
| 2026-05-07 20:24 | 41.32444 | -95.91659 | 2059 ft | 203 kts | 306° |
| 2026-05-07 20:24 | 41.32772 | -95.93404 | 2908 ft | 204 kts | 256° |
| 2026-05-07 20:25 | 41.31883 | -95.94859 | 3452 ft | 218 kts | 204° |
| 2026-05-07 20:25 | 41.30281 | -95.95003 | 3688 ft | 242 kts | 180° |
| 2026-05-07 20:25 | 41.28577 | -95.95069 | 4282 ft | 248 kts | 176° |
| 2026-05-07 20:25 | 41.26917 | -95.94386 | 4902 ft | 255 kts | 158° |
| 2026-05-07 20:26 | 41.25309 | -95.93345 | 5498 ft | 261 kts | 155° |
| 2026-05-07 20:26 | 41.23619 | -95.92207 | 5839 ft | 280 kts | 155° |
| 2026-05-07 20:26 | 41.21856 | -95.91046 | 6559 ft | 285 kts | 155° |
| 2026-05-07 20:26 | 41.20052 | -95.89899 | 7330 ft | 290 kts | 157° |
| 2026-05-07 20:27 | 41.18206 | -95.88762 | 8070 ft | 295 kts | 158° |
| 2026-05-07 20:27 | 41.16309 | -95.87623 | 8763 ft | 303 kts | 159° |
| 2026-05-07 20:27 | 41.14371 | -95.86480 | 9537 ft | 307 kts | 159° |
| 2026-05-07 20:27 | 41.12399 | -95.85333 | 10212 ft | 313 kts | 160° |
| 2026-05-07 20:28 | 41.10336 | -95.84147 | 10482 ft | 335 kts | 160° |
| 2026-05-07 20:28 | 41.08123 | -95.82887 | 10665 ft | 357 kts | 160° |
| 2026-05-07 20:28 | 41.05789 | -95.81561 | 11055 ft | 372 kts | 160° |
| 2026-05-07 20:28 | 41.03383 | -95.80194 | 11632 ft | 379 kts | 160° |
| 2026-05-07 20:29 | 41.00942 | -95.78809 | 12268 ft | 386 kts | 160° |
| 2026-05-07 20:29 | 40.98458 | -95.77402 | 12909 ft | 392 kts | 160° |
| 2026-05-07 20:29 | 40.95931 | -95.75972 | 13567 ft | 398 kts | 160° |
| 2026-05-07 20:29 | 40.93377 | -95.74530 | 14212 ft | 401 kts | 160° |
| 2026-05-07 20:30 | 40.90815 | -95.73083 | 14986 ft | 400 kts | 160° |
| 2026-05-07 20:30 | 40.88268 | -95.71646 | 15826 ft | 396 kts | 160° |
| 2026-05-07 20:30 | 40.85740 | -95.70221 | 16668 ft | 394 kts | 161° |
| 2026-05-07 20:30 | 40.83221 | -95.68804 | 17450 ft | 393 kts | 161° |
| 2026-05-07 20:31 | 40.80697 | -95.67387 | 18157 ft | 394 kts | 161° |
| 2026-05-07 20:31 | 40.78176 | -95.65973 | 18761 ft | 394 kts | 161° |
| 2026-05-07 20:31 | 40.75661 | -95.64562 | 18850 ft | 390 kts | 161° |
| 2026-05-07 20:31 | 40.73207 | -95.63186 | 18871 ft | 389 kts | 161° |
| 2026-05-07 20:32 | 40.70701 | -95.61784 | 18884 ft | 392 kts | 161° |
| 2026-05-07 20:32 | 40.68187 | -95.60380 | 18887 ft | 393 kts | 161° |
| 2026-05-07 20:32 | 40.65668 | -95.58973 | 18883 ft | 394 kts | 161° |
| 2026-05-07 20:32 | 40.63143 | -95.57563 | 18887 ft | 394 kts | 161° |
| 2026-05-07 20:33 | 40.60616 | -95.56153 | 18889 ft | 394 kts | 161° |
| 2026-05-07 20:33 | 40.58086 | -95.54742 | 18887 ft | 394 kts | 161° |
| 2026-05-07 20:33 | 40.55569 | -95.53339 | 18884 ft | 394 kts | 161° |
| 2026-05-07 20:33 | 40.53047 | -95.51935 | 18885 ft | 394 kts | 161° |
| 2026-05-07 20:34 | 40.50526 | -95.50533 | 18886 ft | 393 kts | 161° |
| 2026-05-07 20:34 | 40.48011 | -95.49135 | 18884 ft | 392 kts | 161° |
| 2026-05-07 20:34 | 40.45503 | -95.47742 | 18890 ft | 391 kts | 161° |
| 2026-05-07 20:34 | 40.42997 | -95.46351 | 18893 ft | 391 kts | 162° |
| 2026-05-07 20:35 | 40.40492 | -95.44963 | 18891 ft | 390 kts | 162° |
| 2026-05-07 20:35 | 40.37994 | -95.43579 | 18905 ft | 390 kts | 162° |
| 2026-05-07 20:35 | 40.35507 | -95.42201 | 18898 ft | 384 kts | 162° |
| 2026-05-07 20:35 | 40.33080 | -95.40855 | 18886 ft | 372 kts | 162° |
| 2026-05-07 20:36 | 40.30742 | -95.39559 | 18887 ft | 359 kts | 162° |
| 2026-05-07 20:36 | 40.28456 | -95.38297 | 18902 ft | 355 kts | 162° |
| 2026-05-07 20:36 | 40.26118 | -95.37389 | 18859 ft | 346 kts | 181° |
| 2026-05-07 20:36 | 40.23700 | -95.37208 | 18410 ft | 351 kts | 186° |
| 2026-05-07 20:37 | 40.21264 | -95.37157 | 18029 ft | 350 kts | 186° |
| 2026-05-07 20:37 | 40.18825 | -95.37127 | 17602 ft | 350 kts | 186° |
| 2026-05-07 20:37 | 40.16399 | -95.37088 | 17210 ft | 348 kts | 186° |
| 2026-05-07 20:37 | 40.13986 | -95.37034 | 16834 ft | 346 kts | 186° |
| 2026-05-07 20:38 | 40.11592 | -95.36969 | 16526 ft | 342 kts | 185° |
| 2026-05-07 20:38 | 40.09228 | -95.36897 | 16186 ft | 339 kts | 185° |
| 2026-05-07 20:38 | 40.06874 | -95.36823 | 15827 ft | 337 kts | 185° |
| 2026-05-07 20:38 | 40.04534 | -95.36748 | 15470 ft | 336 kts | 185° |
| 2026-05-07 20:39 | 40.02205 | -95.36672 | 15125 ft | 334 kts | 185° |
| 2026-05-07 20:39 | 39.99888 | -95.36596 | 14771 ft | 332 kts | 185° |
| 2026-05-07 20:39 | 39.97579 | -95.36520 | 14424 ft | 331 kts | 185° |
| 2026-05-07 20:39 | 39.95277 | -95.36444 | 14078 ft | 330 kts | 185° |
| 2026-05-07 20:40 | 39.92984 | -95.36369 | 13727 ft | 330 kts | 185° |
| 2026-05-07 20:40 | 39.90694 | -95.36293 | 13336 ft | 328 kts | 185° |
| 2026-05-07 20:40 | 39.88417 | -95.36217 | 12962 ft | 327 kts | 185° |
| 2026-05-07 20:40 | 39.86151 | -95.36142 | 12605 ft | 324 kts | 184° |
| 2026-05-07 20:41 | 39.83905 | -95.36062 | 12269 ft | 323 kts | 182° |
| 2026-05-07 20:41 | 39.81708 | -95.35363 | 11913 ft | 331 kts | 157° |
| 2026-05-07 20:41 | 39.79830 | -95.33641 | 11650 ft | 331 kts | 140° |
| 2026-05-07 20:41 | 39.78158 | -95.31605 | 11364 ft | 329 kts | 138° |
| 2026-05-07 20:42 | 39.76522 | -95.29542 | 11065 ft | 327 kts | 138° |
| 2026-05-07 20:42 | 39.74919 | -95.27519 | 10773 ft | 324 kts | 138° |
| 2026-05-07 20:42 | 39.73285 | -95.25476 | 10479 ft | 321 kts | 138° |
| 2026-05-07 20:42 | 39.71676 | -95.23478 | 10203 ft | 318 kts | 139° |
| 2026-05-07 20:43 | 39.70076 | -95.21503 | 9911 ft | 316 kts | 139° |
| 2026-05-07 20:43 | 39.68486 | -95.19548 | 9610 ft | 314 kts | 139° |
| 2026-05-07 20:43 | 39.66929 | -95.17639 | 9312 ft | 311 kts | 139° |
| 2026-05-07 20:43 | 39.65365 | -95.15722 | 9028 ft | 308 kts | 139° |
| 2026-05-07 20:44 | 39.63812 | -95.13821 | 8770 ft | 306 kts | 140° |
| 2026-05-07 20:44 | 39.62270 | -95.11937 | 8483 ft | 304 kts | 140° |
| 2026-05-07 20:44 | 39.60740 | -95.10062 | 8218 ft | 302 kts | 137° |
| 2026-05-07 20:44 | 39.59545 | -95.07836 | 7916 ft | 304 kts | 113° |
| 2026-05-07 20:45 | 39.58814 | -95.05282 | 7678 ft | 300 kts | 109° |
| 2026-05-07 20:45 | 39.58138 | -95.02730 | 7424 ft | 299 kts | 109° |
| 2026-05-07 20:45 | 39.57466 | -95.00182 | 7149 ft | 298 kts | 109° |
| 2026-05-07 20:45 | 39.56791 | -94.97654 | 6871 ft | 296 kts | 110° |
| 2026-05-07 20:46 | 39.56113 | -94.95144 | 6611 ft | 295 kts | 110° |
| 2026-05-07 20:46 | 39.55429 | -94.92641 | 6330 ft | 294 kts | 110° |
| 2026-05-07 20:46 | 39.54747 | -94.90152 | 6062 ft | 292 kts | 111° |
| 2026-05-07 20:46 | 39.54069 | -94.87690 | 5816 ft | 289 kts | 112° |
| 2026-05-07 20:47 | 39.53399 | -94.85248 | 5523 ft | 286 kts | 111° |
| 2026-05-07 20:47 | 39.52744 | -94.82824 | 5286 ft | 284 kts | 112° |
| 2026-05-07 20:47 | 39.52098 | -94.80427 | 5030 ft | 282 kts | 112° |
| 2026-05-07 20:47 | 39.51455 | -94.78040 | 4803 ft | 279 kts | 113° |
| 2026-05-07 20:48 | 39.50818 | -94.75683 | 4589 ft | 276 kts | 113° |
| 2026-05-07 20:48 | 39.50179 | -94.73345 | 4250 ft | 277 kts | 116° |
| 2026-05-07 20:48 | 39.49182 | -94.71361 | 4201 ft | 252 kts | 143° |
| 2026-05-07 20:48 | 39.47785 | -94.70187 | 3999 ft | 229 kts | 165° |
| 2026-05-07 20:49 | 39.46337 | -94.69594 | 3790 ft | 208 kts | 168° |
| 2026-05-07 20:49 | 39.44991 | -94.69078 | 3564 ft | 197 kts | 168° |
| 2026-05-07 20:49 | 39.43831 | -94.68857 | 3313 ft | 191 kts | 189° |
| 2026-05-07 20:49 | 39.42566 | -94.69057 | 3090 ft | 175 kts | 193° |
| 2026-05-07 20:50 | 39.41403 | -94.69346 | 2842 ft | 171 kts | 197° |
| 2026-05-07 20:50 | 39.40239 | -94.69722 | 2681 ft | 172 kts | 197° |
| 2026-05-07 20:50 | 39.39111 | -94.70083 | 2579 ft | 158 kts | 197° |
| 2026-05-07 20:50 | 39.38139 | -94.70345 | 2459 ft | 132 kts | 194° |
| 2026-05-07 20:51 | 39.37278 | -94.70555 | 2209 ft | 123 kts | 198° |
| 2026-05-07 20:51 | 39.36452 | -94.70754 | 2060 ft | 117 kts | 201° |
| 2026-05-07 20:51 | 39.35645 | -94.71053 | 1764 ft | 124 kts | 199° |
| 2026-05-07 20:51 | 39.34793 | -94.71318 | 1586 ft | 128 kts | 197° |
| 2026-05-07 20:52 | 39.33940 | -94.71579 | 1434 ft | 127 kts | 198° |
| 2026-05-07 20:52 | 39.33066 | -94.71840 | 1290 ft | 126 kts | 196° |
| 2026-05-07 20:52 | 39.32217 | -94.72080 | 1039 ft | 125 kts | 197° |
| 2026-05-07 20:52 | 39.31455 | -94.72312 | 1015 ft | 92 kts | 194° |
| 2026-05-07 20:53 | 39.31004 | -94.72439 | 1013 ft | 44 kts | 186° |
| 2026-05-07 20:53 | 39.30813 | -94.72405 | 1013 ft | 23 kts | 159° |
| 2026-05-07 20:53 | 39.30764 | -94.72372 | 1013 ft | 11 kts | 149° |
| 2026-05-07 20:53 | 39.30706 | -94.72301 | 1013 ft | 3 kts | 126° |
| 2026-05-07 20:54 | 39.30700 | -94.72224 | 1013 ft | 11 kts | 85° |
| 2026-05-07 20:54 | 39.30693 | -94.72130 | 1013 ft | 11 kts | 103° |
| 2026-05-07 20:54 | 39.30648 | -94.72078 | 1013 ft | 10 kts | 192° |
| 2026-05-07 20:54 | 39.30617 | -94.72088 | 1013 ft | 0 kts | 194° |